createdAt,value
2023-04-08T00:00:17.996Z,8.50
2023-04-08T00:04:22.278Z,8.50
2023-04-08T00:08:25.123Z,8.50
2023-04-08T00:12:28.076Z,8.50
2023-04-08T00:16:30.989Z,8.50
2023-04-08T00:20:35.454Z,8.50
2023-04-08T00:24:38.267Z,8.50
2023-04-08T00:28:41.178Z,8.50
2023-04-08T00:32:44.679Z,8.40
2023-04-08T00:36:48.941Z,8.40
2023-04-08T00:40:51.735Z,8.40
2023-04-08T00:44:54.562Z,8.40
2023-04-08T00:48:57.357Z,8.40
2023-04-08T00:53:01.497Z,8.40
2023-04-08T00:57:05.226Z,8.40
2023-04-08T01:01:11.244Z,8.40
2023-04-08T01:05:16.273Z,8.40
2023-04-08T01:09:22.453Z,8.30
2023-04-08T01:13:27.372Z,8.30
2023-04-08T01:17:31.366Z,8.30
2023-04-08T01:21:34.201Z,8.30
2023-04-08T01:25:39.014Z,8.20
2023-04-08T01:29:44.663Z,8.20
2023-04-08T01:33:49.011Z,8.20
2023-04-08T01:37:52.673Z,8.20
2023-04-08T01:41:55.999Z,8.10
2023-04-08T01:46:01.020Z,8.10
2023-04-08T01:50:03.972Z,8.10
2023-04-08T01:54:06.872Z,8.00
2023-04-08T01:58:12.873Z,8.00
2023-04-08T02:02:18.254Z,7.90
2023-04-08T02:06:21.106Z,7.90
2023-04-08T02:10:23.924Z,7.80
2023-04-08T02:14:27.248Z,7.80
2023-04-08T02:18:32.462Z,7.80
2023-04-08T02:22:39.736Z,7.70
2023-04-08T02:26:43.986Z,7.70
2023-04-08T02:30:49.607Z,7.70
2023-04-08T02:34:54.352Z,7.70
2023-04-08T02:38:57.165Z,7.60
2023-04-08T02:43:00.516Z,7.60
2023-04-08T02:47:03.335Z,7.60
2023-04-08T02:51:08.322Z,7.50
2023-04-08T02:55:11.760Z,7.50
2023-04-08T02:59:14.548Z,7.40
2023-04-08T03:03:17.552Z,7.40
2023-04-08T03:07:21.750Z,7.40
2023-04-08T03:11:24.541Z,7.40
2023-04-08T03:15:27.455Z,7.30
2023-04-08T03:19:30.361Z,7.30
2023-04-08T03:23:34.509Z,7.30
2023-04-08T03:27:37.268Z,7.30
2023-04-08T03:31:40.101Z,7.20
2023-04-08T03:35:43.021Z,7.20
2023-04-08T03:39:47.228Z,7.20
2023-04-08T03:43:50.030Z,7.20
2023-04-08T03:47:52.854Z,7.20
2023-04-08T03:51:55.769Z,7.20
2023-04-08T03:56:02.754Z,7.20
2023-04-08T04:00:07.030Z,7.20
2023-04-08T04:04:10.336Z,7.20
2023-04-08T04:08:13.231Z,7.20
2023-04-08T04:12:17.341Z,7.20
2023-04-08T04:16:20.211Z,7.20
2023-04-08T04:20:23.039Z,7.20
2023-04-08T04:24:25.830Z,7.20
2023-04-08T04:28:29.949Z,7.20
2023-04-08T04:32:32.760Z,7.20
2023-04-08T04:36:35.686Z,7.20
2023-04-08T04:40:38.452Z,7.20
2023-04-08T04:44:42.626Z,7.20
2023-04-08T04:48:45.513Z,7.30
2023-04-08T04:52:48.285Z,7.20
2023-04-08T04:56:51.061Z,7.30
2023-04-08T05:00:55.521Z,7.30
2023-04-08T05:04:58.360Z,7.30
2023-04-08T05:09:01.229Z,7.30
2023-04-08T05:13:03.987Z,7.30
2023-04-08T05:17:08.117Z,7.30
2023-04-08T05:21:10.910Z,7.30
2023-04-08T05:25:13.758Z,7.30
2023-04-08T05:29:16.600Z,7.40
2023-04-08T05:33:20.772Z,7.40
2023-04-08T05:37:23.546Z,7.40
2023-04-08T05:41:26.419Z,7.50
2023-04-08T05:45:29.257Z,7.50
2023-04-08T05:49:34.458Z,7.50
2023-04-08T05:53:37.309Z,7.50
2023-04-08T05:57:40.365Z,7.50
2023-04-08T06:01:43.246Z,7.50
2023-04-08T06:05:47.473Z,7.50
2023-04-08T06:09:50.392Z,7.50
2023-04-08T06:13:53.168Z,7.60
2023-04-08T06:17:56.042Z,7.60
2023-04-08T06:22:00.301Z,7.60
2023-04-08T06:26:03.177Z,7.60
2023-04-08T06:30:06.399Z,7.70
2023-04-08T06:34:09.192Z,7.70
2023-04-08T06:38:13.535Z,7.70
2023-04-08T06:42:16.431Z,7.70
2023-04-08T06:46:19.537Z,7.70
2023-04-08T06:50:22.560Z,7.80
2023-04-08T06:54:26.713Z,7.80
2023-04-08T06:58:29.851Z,7.80
2023-04-08T07:02:32.846Z,7.80
2023-04-08T07:06:35.806Z,7.80
2023-04-08T07:10:40.040Z,7.90
2023-04-08T07:14:42.818Z,7.90
2023-04-08T07:18:45.788Z,7.90
2023-04-08T07:22:48.592Z,8.00
2023-04-08T07:26:52.970Z,8.00
2023-04-08T07:30:56.039Z,8.00
2023-04-08T07:34:59.848Z,8.00
2023-04-08T07:39:02.665Z,8.10
2023-04-08T07:43:06.865Z,8.10
2023-04-08T07:47:10.310Z,8.10
2023-04-08T07:51:13.250Z,8.20
2023-04-08T07:55:16.493Z,8.20
2023-04-08T07:59:20.979Z,8.30
2023-04-08T08:03:23.895Z,8.30
2023-04-08T08:07:26.836Z,8.30
2023-04-08T08:11:29.792Z,8.40
2023-04-08T08:15:34.029Z,8.50
2023-04-08T08:19:36.858Z,8.50
2023-04-08T08:23:39.670Z,8.50
2023-04-08T08:27:42.726Z,8.50
2023-04-08T08:31:48.600Z,8.60
2023-04-08T08:35:51.698Z,8.60
2023-04-08T08:39:54.634Z,8.70
2023-04-08T08:43:58.256Z,8.70
2023-04-08T08:48:02.765Z,8.70
2023-04-08T08:52:06.954Z,8.80
2023-04-08T09:00:16.326Z,8.90
2023-04-08T09:04:21.176Z,9.00
2023-04-08T09:08:28.056Z,9.10
2023-04-08T09:12:31.420Z,9.20
2023-04-08T09:16:34.385Z,9.20
2023-04-08T09:20:38.555Z,9.30
2023-04-08T09:24:41.313Z,9.30
2023-04-08T09:28:44.746Z,9.40
2023-04-08T09:32:51.180Z,9.50
2023-04-08T09:36:56.496Z,9.50
2023-04-08T09:40:59.748Z,9.60
2023-04-08T09:45:03.244Z,9.60
2023-04-08T09:49:07.382Z,9.70
2023-04-08T09:53:15.369Z,9.70
2023-04-08T09:57:22.022Z,9.80
2023-04-08T10:01:27.860Z,9.80
2023-04-08T10:05:32.034Z,9.80
2023-04-08T10:09:38.596Z,9.90
2023-04-08T10:13:41.410Z,9.90
2023-04-08T10:17:44.248Z,10.00
2023-04-08T10:21:49.701Z,10.10
2023-04-08T10:25:53.848Z,10.10
2023-04-08T10:29:56.668Z,10.20
2023-04-08T10:34:16.245Z,10.20
2023-04-08T10:38:19.428Z,10.20
2023-04-08T10:42:29.595Z,10.30
2023-04-08T10:46:38.858Z,10.30
2023-04-08T10:50:41.962Z,10.30
2023-04-08T10:54:48.323Z,10.40
2023-04-08T10:58:53.210Z,10.40
2023-04-08T11:02:56.138Z,10.40
2023-04-08T11:06:59.618Z,10.50
2023-04-08T11:11:02.532Z,10.50
2023-04-08T11:15:07.290Z,10.60
2023-04-08T11:19:10.105Z,10.60
2023-04-08T11:23:13.850Z,10.70
2023-04-08T11:27:16.795Z,10.70
2023-04-08T11:31:24.307Z,10.80
2023-04-08T11:35:29.723Z,10.80
2023-04-08T11:39:32.564Z,10.90
2023-04-08T11:43:36.622Z,10.90
2023-04-08T11:47:41.082Z,11.00
2023-04-08T11:51:55.818Z,11.00
2023-04-08T11:55:58.582Z,11.00
2023-04-08T12:00:01.796Z,11.00
2023-04-08T12:04:06.924Z,11.10
2023-04-08T12:08:09.867Z,11.10
2023-04-08T12:12:12.680Z,11.20
2023-04-08T12:16:17.953Z,11.20
2023-04-08T12:20:22.320Z,11.30
2023-04-08T12:24:25.137Z,11.30
2023-04-08T12:28:27.952Z,11.30
2023-04-08T12:32:30.942Z,11.30
2023-04-08T12:36:35.097Z,11.30
2023-04-08T12:40:37.922Z,11.30
2023-04-08T12:44:40.711Z,11.30
2023-04-08T12:48:45.091Z,11.40
2023-04-08T12:52:49.236Z,11.40
2023-04-08T12:56:52.019Z,11.40
2023-04-08T13:00:54.833Z,11.40
2023-04-08T13:04:57.660Z,11.50
2023-04-08T13:09:01.782Z,11.60
2023-04-08T13:13:04.590Z,11.60
2023-04-08T13:17:07.414Z,11.60
2023-04-08T13:21:10.387Z,11.70
2023-04-08T13:25:14.547Z,11.70
2023-04-08T13:29:17.329Z,11.70
2023-04-08T13:33:20.136Z,11.70
2023-04-08T13:37:22.920Z,11.70
2023-04-08T13:41:28.225Z,11.70
2023-04-08T13:45:31.167Z,11.60
2023-04-08T13:49:34.022Z,11.60
2023-04-08T13:53:36.872Z,11.60
2023-04-08T13:57:41.177Z,11.60
2023-04-08T14:01:44.096Z,11.60
2023-04-08T14:05:47.045Z,11.60
2023-04-08T14:09:49.850Z,11.60
2023-04-08T14:13:54.015Z,11.50
2023-04-08T14:17:57.150Z,11.50
2023-04-08T14:21:59.997Z,11.60
2023-04-08T14:26:02.977Z,11.50
2023-04-08T14:30:08.177Z,11.60
2023-04-08T14:34:10.981Z,11.60
2023-04-08T14:38:13.756Z,11.60
2023-04-08T14:42:18.271Z,11.60
2023-04-08T14:46:22.685Z,11.60
2023-04-08T14:50:25.737Z,11.70
2023-04-08T14:54:28.519Z,11.70
2023-04-08T14:58:31.430Z,11.70
2023-04-08T15:02:35.916Z,11.70
2023-04-08T15:06:39.048Z,11.70
2023-04-08T15:10:41.894Z,11.70
2023-04-08T15:14:44.853Z,11.70
2023-04-08T15:18:49.187Z,11.70
2023-04-08T15:22:52.236Z,11.70
2023-04-08T15:26:55.045Z,11.60
2023-04-08T15:30:57.911Z,11.60
2023-04-08T15:35:02.271Z,11.60
2023-04-08T15:39:05.184Z,11.60
2023-04-08T15:43:10.155Z,11.60
2023-04-08T15:47:13.007Z,11.50
2023-04-08T15:51:17.156Z,11.50
2023-04-08T15:55:20.041Z,11.50
2023-04-08T15:59:22.827Z,11.40
2023-04-08T16:03:25.774Z,11.40
2023-04-08T16:07:29.955Z,11.30
2023-04-08T16:11:34.237Z,11.30
2023-04-08T16:15:37.165Z,11.20
2023-04-08T16:19:39.999Z,11.20
2023-04-08T16:23:44.163Z,11.10
2023-04-08T16:27:47.486Z,11.10
2023-04-08T16:31:52.275Z,11.10
2023-04-08T16:35:57.607Z,11.00
2023-04-08T16:40:02.015Z,11.00
2023-04-08T16:44:04.974Z,11.00
2023-04-08T16:48:07.981Z,10.90
2023-04-08T16:52:10.786Z,10.90
2023-04-08T16:56:16.155Z,10.80
2023-04-08T17:00:21.138Z,10.80
2023-04-08T17:04:24.117Z,10.70
2023-04-08T17:08:27.072Z,10.70
2023-04-08T17:12:31.292Z,10.70
2023-04-08T17:16:34.149Z,10.60
2023-04-08T17:20:37.568Z,10.60
2023-04-08T17:24:40.623Z,10.50
2023-04-08T17:28:44.894Z,10.50
2023-04-08T17:32:48.273Z,10.40
2023-04-08T17:36:51.297Z,10.40
2023-04-08T17:40:54.094Z,10.40
2023-04-08T17:44:59.748Z,10.30
2023-04-08T17:49:02.560Z,10.30
2023-04-08T17:53:05.390Z,10.30
2023-04-08T17:57:08.176Z,10.30
2023-04-08T18:01:12.334Z,10.30
2023-04-08T18:05:15.480Z,10.20
2023-04-08T18:09:18.313Z,10.20
2023-04-08T18:13:21.126Z,10.20
2023-04-08T18:17:25.300Z,10.20
2023-04-08T18:21:28.134Z,10.10
2023-04-08T18:25:31.599Z,10.10
2023-04-08T18:29:34.620Z,10.10
2023-04-08T18:33:39.651Z,10.00
2023-04-08T18:37:42.431Z,10.00
2023-04-08T18:41:45.324Z,10.00
2023-04-08T18:45:48.466Z,10.00
2023-04-08T18:49:52.657Z,9.90
2023-04-08T18:53:55.527Z,9.90
2023-04-08T18:57:58.504Z,9.90
2023-04-08T19:02:01.603Z,9.90
2023-04-08T19:06:07.762Z,9.90
2023-04-08T19:10:10.712Z,9.80
2023-04-08T19:14:13.524Z,9.80
2023-04-08T19:18:16.297Z,9.80
2023-04-08T19:22:20.800Z,9.80
2023-04-08T19:26:23.955Z,9.80
2023-04-08T19:30:26.733Z,9.80
2023-04-08T19:34:30.025Z,9.80
2023-04-08T19:38:34.170Z,9.80
2023-04-08T19:42:37.128Z,9.70
2023-04-08T19:46:39.983Z,9.70
2023-04-08T19:50:42.845Z,9.70
2023-04-08T19:54:50.289Z,9.70
2023-04-08T19:58:53.479Z,9.70
2023-04-08T20:02:56.773Z,9.60
2023-04-08T20:07:02.502Z,9.70
2023-04-08T20:11:06.713Z,9.60
2023-04-08T20:15:22.890Z,9.70
2023-04-08T20:19:27.294Z,9.60
2023-04-08T20:23:30.096Z,9.60
2023-04-08T20:27:35.734Z,9.60
2023-04-08T20:31:38.622Z,9.60
2023-04-08T20:35:41.484Z,9.50
2023-04-08T20:39:44.313Z,9.50
2023-04-08T20:43:48.475Z,9.50
2023-04-08T20:47:51.328Z,9.50
2023-04-08T20:51:54.132Z,9.50
2023-04-08T20:55:56.930Z,9.50
2023-04-08T21:00:01.149Z,9.50
2023-04-08T21:04:04.940Z,9.40
2023-04-08T21:08:07.721Z,9.40
2023-04-08T21:12:10.531Z,9.40
2023-04-08T21:16:14.719Z,9.40
2023-04-08T21:20:17.717Z,9.40
2023-04-08T21:24:20.534Z,9.40
2023-04-08T21:28:23.375Z,9.40
2023-04-08T21:32:29.899Z,9.30
2023-04-08T21:36:33.071Z,9.30
2023-04-08T21:40:35.873Z,9.30
2023-04-08T21:44:38.871Z,9.30
2023-04-08T21:48:43.301Z,9.20
2023-04-08T21:52:46.299Z,9.20
2023-04-08T21:56:49.152Z,9.10
2023-04-08T22:00:53.093Z,9.10
2023-04-08T22:04:58.418Z,9.00
2023-04-08T22:09:01.205Z,8.90
2023-04-08T22:13:04.043Z,8.80
2023-04-08T22:17:06.929Z,8.70
2023-04-08T22:21:11.162Z,8.50
2023-04-08T22:25:13.989Z,8.40
2023-04-08T22:29:17.340Z,8.30
2023-04-08T22:33:20.145Z,8.20
2023-04-08T22:37:24.293Z,8.00
2023-04-08T22:41:27.149Z,7.90
2023-04-08T22:45:29.940Z,7.80
2023-04-08T22:49:32.708Z,7.70
2023-04-08T22:53:37.012Z,7.60
2023-04-08T22:57:39.817Z,7.50
2023-04-08T23:01:44.096Z,7.50
2023-04-08T23:05:47.011Z,7.40
2023-04-08T23:09:51.330Z,7.40
2023-04-08T23:13:54.110Z,7.40
2023-04-08T23:17:56.940Z,7.30
2023-04-08T23:21:59.738Z,7.30
2023-04-08T23:26:03.878Z,7.30
2023-04-08T23:30:07.341Z,7.20
2023-04-08T23:34:10.370Z,7.20
2023-04-08T23:38:13.178Z,7.10
2023-04-08T23:42:17.366Z,7.00
2023-04-08T23:46:20.452Z,7.00
2023-04-08T23:50:23.563Z,7.00
2023-04-08T23:54:30.388Z,6.90
2023-04-08T23:58:34.626Z,6.90
